sensor_id;sensor_type;location;lat;lon;timestamp;P1;durP1;ratioP1;P2;durP2;ratioP2
11514;SDS011;5814;41.936;25.556;2023-04-03T00:01:46;7.83;;;7.33;;
11514;SDS011;5814;41.936;25.556;2023-04-03T00:04:12;8.13;;;7.53;;
11514;SDS011;5814;41.936;25.556;2023-04-03T00:06:38;7.93;;;7.20;;
11514;SDS011;5814;41.936;25.556;2023-04-03T00:09:05;7.90;;;7.30;;
11514;SDS011;5814;41.936;25.556;2023-04-03T00:11:31;6.73;;;6.13;;
11514;SDS011;5814;41.936;25.556;2023-04-03T00:13:57;6.80;;;6.37;;
11514;SDS011;5814;41.936;25.556;2023-04-03T00:16:24;6.13;;;5.70;;
11514;SDS011;5814;41.936;25.556;2023-04-03T00:18:50;6.07;;;5.73;;
11514;SDS011;5814;41.936;25.556;2023-04-03T00:21:17;5.53;;;5.23;;
11514;SDS011;5814;41.936;25.556;2023-04-03T00:23:43;6.03;;;5.63;;
11514;SDS011;5814;41.936;25.556;2023-04-03T00:26:09;5.50;;;5.20;;
11514;SDS011;5814;41.936;25.556;2023-04-03T00:28:36;6.17;;;5.70;;
11514;SDS011;5814;41.936;25.556;2023-04-03T00:31:02;5.80;;;5.40;;
11514;SDS011;5814;41.936;25.556;2023-04-03T00:33:28;6.00;;;5.50;;
11514;SDS011;5814;41.936;25.556;2023-04-03T00:35:55;6.00;;;5.53;;
11514;SDS011;5814;41.936;25.556;2023-04-03T00:38:21;5.63;;;5.33;;
11514;SDS011;5814;41.936;25.556;2023-04-03T00:40:48;5.80;;;5.40;;
11514;SDS011;5814;41.936;25.556;2023-04-03T00:43:16;6.00;;;5.60;;
11514;SDS011;5814;41.936;25.556;2023-04-03T00:45:42;5.90;;;5.50;;
11514;SDS011;5814;41.936;25.556;2023-04-03T00:48:08;5.93;;;5.53;;
11514;SDS011;5814;41.936;25.556;2023-04-03T00:50:35;5.80;;;5.40;;
11514;SDS011;5814;41.936;25.556;2023-04-03T00:53:00;5.87;;;5.50;;
11514;SDS011;5814;41.936;25.556;2023-04-03T00:55:26;5.80;;;5.50;;
11514;SDS011;5814;41.936;25.556;2023-04-03T00:57:53;5.53;;;5.03;;
11514;SDS011;5814;41.936;25.556;2023-04-03T01:00:20;5.67;;;5.30;;
11514;SDS011;5814;41.936;25.556;2023-04-03T01:02:45;5.10;;;4.80;;
11514;SDS011;5814;41.936;25.556;2023-04-03T01:05:12;5.80;;;5.50;;
11514;SDS011;5814;41.936;25.556;2023-04-03T01:07:38;5.83;;;5.43;;
11514;SDS011;5814;41.936;25.556;2023-04-03T01:10:06;6.00;;;5.60;;
11514;SDS011;5814;41.936;25.556;2023-04-03T01:12:32;6.13;;;5.67;;
11514;SDS011;5814;41.936;25.556;2023-04-03T01:14:59;6.10;;;5.53;;
11514;SDS011;5814;41.936;25.556;2023-04-03T01:20:14;5.87;;;5.57;;
11514;SDS011;5814;41.936;25.556;2023-04-03T01:22:38;5.80;;;5.43;;
11514;SDS011;5814;41.936;25.556;2023-04-03T01:25:01;6.00;;;5.70;;
11514;SDS011;5814;41.936;25.556;2023-04-03T01:27:27;5.73;;;5.43;;
11514;SDS011;5814;41.936;25.556;2023-04-03T01:29:54;6.20;;;5.90;;
11514;SDS011;5814;41.936;25.556;2023-04-03T01:32:20;6.03;;;5.63;;
11514;SDS011;5814;41.936;25.556;2023-04-03T01:34:46;6.30;;;5.80;;
11514;SDS011;5814;41.936;25.556;2023-04-03T01:37:13;7.17;;;6.63;;
11514;SDS011;5814;41.936;25.556;2023-04-03T01:39:39;6.83;;;6.43;;
11514;SDS011;5814;41.936;25.556;2023-04-03T01:42:06;6.90;;;6.30;;
11514;SDS011;5814;41.936;25.556;2023-04-03T01:44:39;7.37;;;6.47;;
11514;SDS011;5814;41.936;25.556;2023-04-03T01:47:14;6.60;;;6.20;;
11514;SDS011;5814;41.936;25.556;2023-04-03T01:49:41;6.53;;;6.03;;
11514;SDS011;5814;41.936;25.556;2023-04-03T01:52:07;12.23;;;11.40;;
11514;SDS011;5814;41.936;25.556;2023-04-03T01:54:33;19.13;;;17.60;;
11514;SDS011;5814;41.936;25.556;2023-04-03T01:57:00;11.80;;;11.00;;
11514;SDS011;5814;41.936;25.556;2023-04-03T01:59:26;11.33;;;10.53;;
11514;SDS011;5814;41.936;25.556;2023-04-03T02:01:53;8.87;;;8.27;;
11514;SDS011;5814;41.936;25.556;2023-04-03T02:04:19;7.50;;;6.90;;
11514;SDS011;5814;41.936;25.556;2023-04-03T02:06:45;8.63;;;8.03;;
11514;SDS011;5814;41.936;25.556;2023-04-03T02:09:12;7.83;;;7.27;;
11514;SDS011;5814;41.936;25.556;2023-04-03T02:11:38;7.27;;;6.77;;
11514;SDS011;5814;41.936;25.556;2023-04-03T02:14:04;8.80;;;8.00;;
11514;SDS011;5814;41.936;25.556;2023-04-03T02:16:31;13.47;;;12.57;;
11514;SDS011;5814;41.936;25.556;2023-04-03T02:18:57;14.47;;;13.37;;
11514;SDS011;5814;41.936;25.556;2023-04-03T02:21:23;14.10;;;13.03;;
11514;SDS011;5814;41.936;25.556;2023-04-03T02:23:50;8.47;;;7.87;;
11514;SDS011;5814;41.936;25.556;2023-04-03T02:26:16;21.63;;;19.73;;
11514;SDS011;5814;41.936;25.556;2023-04-03T02:28:43;9.33;;;8.43;;
11514;SDS011;5814;41.936;25.556;2023-04-03T02:31:09;10.40;;;9.70;;
11514;SDS011;5814;41.936;25.556;2023-04-03T02:33:36;10.80;;;9.80;;
11514;SDS011;5814;41.936;25.556;2023-04-03T02:36:02;7.70;;;7.10;;
11514;SDS011;5814;41.936;25.556;2023-04-03T02:38:28;8.87;;;8.17;;
11514;SDS011;5814;41.936;25.556;2023-04-03T02:40:59;6.90;;;6.30;;
11514;SDS011;5814;41.936;25.556;2023-04-03T02:43:21;6.53;;;6.03;;
11514;SDS011;5814;41.936;25.556;2023-04-03T02:45:47;7.20;;;6.50;;
11514;SDS011;5814;41.936;25.556;2023-04-03T02:48:13;8.37;;;7.80;;
11514;SDS011;5814;41.936;25.556;2023-04-03T02:50:40;11.70;;;10.70;;
11514;SDS011;5814;41.936;25.556;2023-04-03T02:53:06;10.70;;;9.90;;
11514;SDS011;5814;41.936;25.556;2023-04-03T02:55:32;13.40;;;12.20;;
11514;SDS011;5814;41.936;25.556;2023-04-03T02:57:59;11.00;;;10.20;;
11514;SDS011;5814;41.936;25.556;2023-04-03T03:00:25;10.63;;;9.63;;
11514;SDS011;5814;41.936;25.556;2023-04-03T03:02:51;16.97;;;15.77;;
11514;SDS011;5814;41.936;25.556;2023-04-03T03:05:18;12.87;;;11.97;;
11514;SDS011;5814;41.936;25.556;2023-04-03T03:07:44;11.13;;;10.43;;
11514;SDS011;5814;41.936;25.556;2023-04-03T03:10:11;10.73;;;9.90;;
11514;SDS011;5814;41.936;25.556;2023-04-03T03:12:37;9.97;;;9.20;;
11514;SDS011;5814;41.936;25.556;2023-04-03T03:15:03;17.23;;;16.03;;
11514;SDS011;5814;41.936;25.556;2023-04-03T03:17:30;9.90;;;9.10;;
11514;SDS011;5814;41.936;25.556;2023-04-03T03:19:56;7.83;;;7.33;;
11514;SDS011;5814;41.936;25.556;2023-04-03T03:22:23;9.03;;;8.43;;
11514;SDS011;5814;41.936;25.556;2023-04-03T03:24:49;10.37;;;9.67;;
11514;SDS011;5814;41.936;25.556;2023-04-03T03:27:15;13.87;;;12.77;;
11514;SDS011;5814;41.936;25.556;2023-04-03T03:29:42;11.00;;;10.20;;
11514;SDS011;5814;41.936;25.556;2023-04-03T03:32:08;9.70;;;9.10;;
11514;SDS011;5814;41.936;25.556;2023-04-03T03:34:34;9.17;;;8.57;;
11514;SDS011;5814;41.936;25.556;2023-04-03T03:37:01;12.97;;;12.07;;
11514;SDS011;5814;41.936;25.556;2023-04-03T03:39:28;11.20;;;10.30;;
11514;SDS011;5814;41.936;25.556;2023-04-03T03:41:53;12.80;;;11.73;;
11514;SDS011;5814;41.936;25.556;2023-04-03T03:44:20;10.60;;;9.90;;
11514;SDS011;5814;41.936;25.556;2023-04-03T03:46:46;9.07;;;8.47;;
11514;SDS011;5814;41.936;25.556;2023-04-03T03:49:12;9.17;;;8.57;;
11514;SDS011;5814;41.936;25.556;2023-04-03T03:51:39;10.07;;;9.40;;
11514;SDS011;5814;41.936;25.556;2023-04-03T03:54:05;9.77;;;8.97;;
11514;SDS011;5814;41.936;25.556;2023-04-03T03:56:32;10.83;;;10.03;;
11514;SDS011;5814;41.936;25.556;2023-04-03T03:58:58;12.33;;;11.43;;
11514;SDS011;5814;41.936;25.556;2023-04-03T04:01:24;13.57;;;11.50;;
11514;SDS011;5814;41.936;25.556;2023-04-03T04:03:51;11.63;;;10.83;;
11514;SDS011;5814;41.936;25.556;2023-04-03T04:06:17;12.20;;;11.10;;
11514;SDS011;5814;41.936;25.556;2023-04-03T04:08:43;10.67;;;9.97;;
11514;SDS011;5814;41.936;25.556;2023-04-03T04:11:10;9.97;;;8.93;;
11514;SDS011;5814;41.936;25.556;2023-04-03T04:13:36;9.77;;;9.03;;
11514;SDS011;5814;41.936;25.556;2023-04-03T04:16:03;9.50;;;8.80;;
11514;SDS011;5814;41.936;25.556;2023-04-03T04:18:29;10.37;;;9.57;;
11514;SDS011;5814;41.936;25.556;2023-04-03T04:20:55;10.00;;;9.33;;
11514;SDS011;5814;41.936;25.556;2023-04-03T04:23:22;14.93;;;13.73;;
11514;SDS011;5814;41.936;25.556;2023-04-03T04:25:48;12.97;;;11.70;;
11514;SDS011;5814;41.936;25.556;2023-04-03T04:28:15;11.07;;;10.40;;
11514;SDS011;5814;41.936;25.556;2023-04-03T04:30:41;10.83;;;9.97;;
11514;SDS011;5814;41.936;25.556;2023-04-03T04:33:07;11.60;;;10.67;;
11514;SDS011;5814;41.936;25.556;2023-04-03T04:35:34;13.43;;;11.33;;
11514;SDS011;5814;41.936;25.556;2023-04-03T04:38:00;14.87;;;13.43;;
11514;SDS011;5814;41.936;25.556;2023-04-03T04:40:26;20.47;;;18.70;;
11514;SDS011;5814;41.936;25.556;2023-04-03T04:42:53;29.10;;;26.40;;
11514;SDS011;5814;41.936;25.556;2023-04-03T04:45:19;24.20;;;21.83;;
11514;SDS011;5814;41.936;25.556;2023-04-03T04:47:45;21.97;;;20.10;;
11514;SDS011;5814;41.936;25.556;2023-04-03T04:50:12;24.40;;;21.90;;
11514;SDS011;5814;41.936;25.556;2023-04-03T04:52:38;19.23;;;17.30;;
11514;SDS011;5814;41.936;25.556;2023-04-03T04:55:05;17.77;;;16.20;;
11514;SDS011;5814;41.936;25.556;2023-04-03T04:57:31;18.07;;;16.47;;
11514;SDS011;5814;41.936;25.556;2023-04-03T04:59:57;15.60;;;14.13;;
11514;SDS011;5814;41.936;25.556;2023-04-03T05:02:24;14.93;;;13.47;;
11514;SDS011;5814;41.936;25.556;2023-04-03T05:04:50;23.43;;;21.30;;
11514;SDS011;5814;41.936;25.556;2023-04-03T05:07:16;19.23;;;17.43;;
11514;SDS011;5814;41.936;25.556;2023-04-03T05:09:43;14.50;;;13.20;;
11514;SDS011;5814;41.936;25.556;2023-04-03T05:12:09;15.07;;;13.80;;
11514;SDS011;5814;41.936;25.556;2023-04-03T05:14:35;12.70;;;11.37;;
11514;SDS011;5814;41.936;25.556;2023-04-03T05:17:02;13.83;;;12.50;;
11514;SDS011;5814;41.936;25.556;2023-04-03T05:19:28;16.13;;;14.50;;
11514;SDS011;5814;41.936;25.556;2023-04-03T05:21:55;19.20;;;17.33;;
11514;SDS011;5814;41.936;25.556;2023-04-03T05:24:21;34.57;;;31.10;;
11514;SDS011;5814;41.936;25.556;2023-04-03T05:26:47;19.90;;;18.00;;
11514;SDS011;5814;41.936;25.556;2023-04-03T05:29:14;24.07;;;21.57;;
11514;SDS011;5814;41.936;25.556;2023-04-03T05:31:40;17.53;;;15.80;;
11514;SDS011;5814;41.936;25.556;2023-04-03T05:34:06;19.03;;;15.03;;
11514;SDS011;5814;41.936;25.556;2023-04-03T05:36:33;17.07;;;15.47;;
11514;SDS011;5814;41.936;25.556;2023-04-03T05:38:59;16.93;;;15.23;;
11514;SDS011;5814;41.936;25.556;2023-04-03T05:41:25;19.33;;;15.30;;
11514;SDS011;5814;41.936;25.556;2023-04-03T05:43:52;20.53;;;18.43;;
11514;SDS011;5814;41.936;25.556;2023-04-03T05:46:19;18.67;;;15.80;;
11514;SDS011;5814;41.936;25.556;2023-04-03T05:48:45;19.73;;;16.33;;
11514;SDS011;5814;41.936;25.556;2023-04-03T05:51:14;21.53;;;19.30;;
11514;SDS011;5814;41.936;25.556;2023-04-03T05:53:38;15.73;;;14.23;;
11514;SDS011;5814;41.936;25.556;2023-04-03T05:56:05;17.57;;;15.73;;
11514;SDS011;5814;41.936;25.556;2023-04-03T05:58:31;22.83;;;17.93;;
11514;SDS011;5814;41.936;25.556;2023-04-03T06:00:58;21.10;;;19.03;;
11514;SDS011;5814;41.936;25.556;2023-04-03T06:03:24;20.60;;;18.70;;
11514;SDS011;5814;41.936;25.556;2023-04-03T06:05:51;16.83;;;15.43;;
11514;SDS011;5814;41.936;25.556;2023-04-03T06:08:17;16.50;;;15.17;;
11514;SDS011;5814;41.936;25.556;2023-04-03T06:10:43;15.00;;;13.63;;
11514;SDS011;5814;41.936;25.556;2023-04-03T06:13:10;14.43;;;13.23;;
11514;SDS011;5814;41.936;25.556;2023-04-03T06:15:36;17.00;;;15.50;;
11514;SDS011;5814;41.936;25.556;2023-04-03T06:18:02;15.60;;;14.20;;
11514;SDS011;5814;41.936;25.556;2023-04-03T06:20:29;15.20;;;13.80;;
11514;SDS011;5814;41.936;25.556;2023-04-03T06:22:55;16.43;;;14.73;;
11514;SDS011;5814;41.936;25.556;2023-04-03T06:25:21;15.53;;;13.80;;
11514;SDS011;5814;41.936;25.556;2023-04-03T06:27:48;16.70;;;13.93;;
11514;SDS011;5814;41.936;25.556;2023-04-03T06:30:14;15.83;;;12.73;;
11514;SDS011;5814;41.936;25.556;2023-04-03T06:32:41;17.53;;;13.83;;
11514;SDS011;5814;41.936;25.556;2023-04-03T06:35:07;20.17;;;17.00;;
11514;SDS011;5814;41.936;25.556;2023-04-03T06:37:34;19.23;;;14.97;;
11514;SDS011;5814;41.936;25.556;2023-04-03T06:40:00;20.30;;;15.37;;
11514;SDS011;5814;41.936;25.556;2023-04-03T06:42:27;17.30;;;15.37;;
11514;SDS011;5814;41.936;25.556;2023-04-03T06:44:53;15.27;;;13.67;;
11514;SDS011;5814;41.936;25.556;2023-04-03T06:47:19;13.30;;;11.63;;
11514;SDS011;5814;41.936;25.556;2023-04-03T06:49:46;13.10;;;11.30;;
11514;SDS011;5814;41.936;25.556;2023-04-03T06:52:12;13.70;;;12.30;;
11514;SDS011;5814;41.936;25.556;2023-04-03T06:54:39;13.23;;;11.87;;
11514;SDS011;5814;41.936;25.556;2023-04-03T06:57:05;9.43;;;8.50;;
11514;SDS011;5814;41.936;25.556;2023-04-03T06:59:31;11.90;;;10.90;;
11514;SDS011;5814;41.936;25.556;2023-04-03T07:01:58;9.40;;;8.60;;
11514;SDS011;5814;41.936;25.556;2023-04-03T07:04:25;7.00;;;6.50;;
11514;SDS011;5814;41.936;25.556;2023-04-03T07:06:51;7.70;;;7.20;;
11514;SDS011;5814;41.936;25.556;2023-04-03T07:09:18;9.10;;;8.20;;
11514;SDS011;5814;41.936;25.556;2023-04-03T07:11:44;7.73;;;7.03;;
11514;SDS011;5814;41.936;25.556;2023-04-03T07:14:11;13.30;;;9.17;;
11514;SDS011;5814;41.936;25.556;2023-04-03T07:16:37;7.43;;;6.73;;
11514;SDS011;5814;41.936;25.556;2023-04-03T07:19:04;10.50;;;9.73;;
11514;SDS011;5814;41.936;25.556;2023-04-03T07:21:30;9.32;;;8.52;;
11514;SDS011;5814;41.936;25.556;2023-04-03T07:23:56;10.75;;;9.75;;
11514;SDS011;5814;41.936;25.556;2023-04-03T07:26:23;10.73;;;9.70;;
11514;SDS011;5814;41.936;25.556;2023-04-03T07:28:49;9.57;;;8.70;;
11514;SDS011;5814;41.936;25.556;2023-04-03T07:31:16;8.63;;;7.78;;
11514;SDS011;5814;41.936;25.556;2023-04-03T07:33:42;8.95;;;8.20;;
11514;SDS011;5814;41.936;25.556;2023-04-03T07:36:09;9.38;;;8.57;;
11514;SDS011;5814;41.936;25.556;2023-04-03T07:38:35;9.05;;;8.25;;
11514;SDS011;5814;41.936;25.556;2023-04-03T07:41:01;10.13;;;9.32;;
11514;SDS011;5814;41.936;25.556;2023-04-03T07:43:27;9.02;;;8.13;;
11514;SDS011;5814;41.936;25.556;2023-04-03T07:45:54;7.60;;;6.97;;
11514;SDS011;5814;41.936;25.556;2023-04-03T07:48:22;8.32;;;7.00;;
11514;SDS011;5814;41.936;25.556;2023-04-03T07:50:47;8.53;;;7.83;;
11514;SDS011;5814;41.936;25.556;2023-04-03T07:53:14;9.57;;;8.03;;
11514;SDS011;5814;41.936;25.556;2023-04-03T07:55:40;8.50;;;7.90;;
11514;SDS011;5814;41.936;25.556;2023-04-03T07:58:10;8.60;;;7.80;;
11514;SDS011;5814;41.936;25.556;2023-04-03T08:00:36;9.13;;;8.33;;
11514;SDS011;5814;41.936;25.556;2023-04-03T08:03:02;10.40;;;9.47;;
11514;SDS011;5814;41.936;25.556;2023-04-03T08:05:29;9.90;;;8.90;;
11514;SDS011;5814;41.936;25.556;2023-04-03T08:07:55;15.43;;;11.33;;
11514;SDS011;5814;41.936;25.556;2023-04-03T08:10:21;16.17;;;14.47;;
11514;SDS011;5814;41.936;25.556;2023-04-03T10:57:56;13.57;;;12.03;;
11514;SDS011;5814;41.936;25.556;2023-04-03T11:00:35;11.43;;;8.70;;
11514;SDS011;5814;41.936;25.556;2023-04-03T11:02:52;9.70;;;8.77;;
11514;SDS011;5814;41.936;25.556;2023-04-03T11:05:24;8.30;;;7.60;;
11514;SDS011;5814;41.936;25.556;2023-04-03T11:07:52;9.40;;;7.70;;
11514;SDS011;5814;41.936;25.556;2023-04-03T11:10:21;9.27;;;8.20;;
11514;SDS011;5814;41.936;25.556;2023-04-03T11:12:51;9.13;;;8.10;;
11514;SDS011;5814;41.936;25.556;2023-04-03T11:15:19;9.50;;;8.70;;
11514;SDS011;5814;41.936;25.556;2023-04-03T11:17:50;10.03;;;9.10;;
11514;SDS011;5814;41.936;25.556;2023-04-03T11:20:23;9.97;;;9.07;;
11514;SDS011;5814;41.936;25.556;2023-04-03T11:22:52;11.63;;;9.70;;
11514;SDS011;5814;41.936;25.556;2023-04-03T11:25:21;10.23;;;9.30;;
11514;SDS011;5814;41.936;25.556;2023-04-03T11:27:51;10.40;;;9.00;;
11514;SDS011;5814;41.936;25.556;2023-04-03T11:30:22;13.43;;;10.10;;
11514;SDS011;5814;41.936;25.556;2023-04-03T11:32:55;12.63;;;10.23;;
11514;SDS011;5814;41.936;25.556;2023-04-03T11:35:20;12.33;;;11.10;;
11514;SDS011;5814;41.936;25.556;2023-04-03T11:37:48;10.27;;;9.47;;
11514;SDS011;5814;41.936;25.556;2023-04-03T11:40:20;11.90;;;10.70;;
11514;SDS011;5814;41.936;25.556;2023-04-03T11:42:46;13.60;;;10.33;;
11514;SDS011;5814;41.936;25.556;2023-04-03T11:48:05;13.33;;;11.87;;
11514;SDS011;5814;41.936;25.556;2023-04-03T11:50:42;12.80;;;11.60;;
11514;SDS011;5814;41.936;25.556;2023-04-03T11:55:56;18.33;;;16.43;;
11514;SDS011;5814;41.936;25.556;2023-04-03T11:58:25;14.77;;;13.30;;
11514;SDS011;5814;41.936;25.556;2023-04-03T12:00:54;15.50;;;13.90;;
11514;SDS011;5814;41.936;25.556;2023-04-03T12:03:31;16.30;;;14.90;;
11514;SDS011;5814;41.936;25.556;2023-04-03T12:09:01;18.20;;;16.20;;
11514;SDS011;5814;41.936;25.556;2023-04-03T12:11:29;18.50;;;16.77;;
11514;SDS011;5814;41.936;25.556;2023-04-03T12:14:04;16.47;;;15.07;;
11514;SDS011;5814;41.936;25.556;2023-04-03T12:16:41;18.00;;;16.10;;
11514;SDS011;5814;41.936;25.556;2023-04-03T12:19:29;17.93;;;16.33;;
11514;SDS011;5814;41.936;25.556;2023-04-03T12:22:04;17.87;;;16.27;;
11514;SDS011;5814;41.936;25.556;2023-04-03T12:24:33;12.77;;;11.60;;
11514;SDS011;5814;41.936;25.556;2023-04-03T12:27:05;15.10;;;13.60;;
11514;SDS011;5814;41.936;25.556;2023-04-03T12:30:15;13.63;;;12.20;;
11514;SDS011;5814;41.936;25.556;2023-04-03T12:33:12;14.77;;;13.30;;
11514;SDS011;5814;41.936;25.556;2023-04-03T12:35:19;13.17;;;12.07;;
11514;SDS011;5814;41.936;25.556;2023-04-03T12:40:37;13.77;;;12.53;;
11514;SDS011;5814;41.936;25.556;2023-04-03T12:43:17;12.97;;;11.70;;
11514;SDS011;5814;41.936;25.556;2023-04-03T12:45:48;14.57;;;13.13;;
11514;SDS011;5814;41.936;25.556;2023-04-03T12:48:18;14.27;;;13.07;;
11514;SDS011;5814;41.936;25.556;2023-04-03T12:50:45;17.17;;;15.57;;
11514;SDS011;5814;41.936;25.556;2023-04-03T12:53:16;16.47;;;14.73;;
11514;SDS011;5814;41.936;25.556;2023-04-03T12:55:43;16.37;;;14.87;;
11514;SDS011;5814;41.936;25.556;2023-04-03T12:58:14;18.30;;;15.80;;
11514;SDS011;5814;41.936;25.556;2023-04-03T13:00:40;15.20;;;13.60;;
11514;SDS011;5814;41.936;25.556;2023-04-03T13:03:19;14.33;;;13.07;;
11514;SDS011;5814;41.936;25.556;2023-04-03T13:05:34;15.90;;;14.30;;
11514;SDS011;5814;41.936;25.556;2023-04-03T13:08:04;13.87;;;12.77;;
11514;SDS011;5814;41.936;25.556;2023-04-03T13:10:30;14.40;;;13.20;;
11514;SDS011;5814;41.936;25.556;2023-04-03T13:12:58;16.10;;;14.70;;
11514;SDS011;5814;41.936;25.556;2023-04-03T13:15:28;17.37;;;15.60;;
11514;SDS011;5814;41.936;25.556;2023-04-03T13:17:54;17.87;;;16.07;;
11514;SDS011;5814;41.936;25.556;2023-04-03T13:20:23;18.00;;;16.27;;
11514;SDS011;5814;41.936;25.556;2023-04-03T13:22:56;18.27;;;16.47;;
11514;SDS011;5814;41.936;25.556;2023-04-03T13:25:23;17.53;;;15.83;;
11514;SDS011;5814;41.936;25.556;2023-04-03T13:27:50;21.63;;;17.90;;
11514;SDS011;5814;41.936;25.556;2023-04-03T13:30:38;18.83;;;17.03;;
11514;SDS011;5814;41.936;25.556;2023-04-03T13:33:04;20.93;;;18.80;;
11514;SDS011;5814;41.936;25.556;2023-04-03T13:35:32;20.80;;;18.23;;
11514;SDS011;5814;41.936;25.556;2023-04-03T13:38:00;21.80;;;19.57;;
11514;SDS011;5814;41.936;25.556;2023-04-03T13:40:26;21.83;;;19.37;;
11514;SDS011;5814;41.936;25.556;2023-04-03T13:43:00;25.37;;;21.57;;
11514;SDS011;5814;41.936;25.556;2023-04-03T13:45:27;24.83;;;22.20;;
11514;SDS011;5814;41.936;25.556;2023-04-03T13:48:06;25.67;;;23.10;;
11514;SDS011;5814;41.936;25.556;2023-04-03T13:50:50;27.60;;;23.93;;
11514;SDS011;5814;41.936;25.556;2023-04-03T13:53:18;30.87;;;25.97;;
11514;SDS011;5814;41.936;25.556;2023-04-03T13:58:22;28.97;;;23.60;;
11514;SDS011;5814;41.936;25.556;2023-04-03T14:00:51;31.97;;;24.43;;
11514;SDS011;5814;41.936;25.556;2023-04-03T14:03:21;24.47;;;21.80;;
11514;SDS011;5814;41.936;25.556;2023-04-03T14:05:59;28.97;;;22.77;;
11514;SDS011;5814;41.936;25.556;2023-04-03T14:08:26;32.73;;;24.43;;
11514;SDS011;5814;41.936;25.556;2023-04-03T14:10:54;27.37;;;22.47;;
11514;SDS011;5814;41.936;25.556;2023-04-03T14:13:21;29.17;;;26.03;;
11514;SDS011;5814;41.936;25.556;2023-04-03T14:15:48;25.07;;;22.40;;
11514;SDS011;5814;41.936;25.556;2023-04-03T14:18:16;28.60;;;25.33;;
11514;SDS011;5814;41.936;25.556;2023-04-03T14:20:43;31.53;;;26.20;;
11514;SDS011;5814;41.936;25.556;2023-04-03T14:23:10;28.00;;;22.30;;
11514;SDS011;5814;41.936;25.556;2023-04-03T14:25:37;28.70;;;22.47;;
11514;SDS011;5814;41.936;25.556;2023-04-03T14:28:12;29.23;;;24.00;;
11514;SDS011;5814;41.936;25.556;2023-04-03T14:30:33;31.23;;;24.43;;
11514;SDS011;5814;41.936;25.556;2023-04-03T14:33:00;24.70;;;21.57;;
11514;SDS011;5814;41.936;25.556;2023-04-03T14:35:29;25.23;;;22.63;;
11514;SDS011;5814;41.936;25.556;2023-04-03T14:37:55;29.17;;;23.17;;
11514;SDS011;5814;41.936;25.556;2023-04-03T14:40:24;28.90;;;24.63;;
11514;SDS011;5814;41.936;25.556;2023-04-03T14:42:51;28.13;;;24.30;;
11514;SDS011;5814;41.936;25.556;2023-04-03T14:45:18;30.90;;;22.83;;
11514;SDS011;5814;41.936;25.556;2023-04-03T14:47:46;23.73;;;20.93;;
11514;SDS011;5814;41.936;25.556;2023-04-03T14:50:15;22.23;;;19.83;;
11514;SDS011;5814;41.936;25.556;2023-04-03T14:52:40;22.33;;;18.30;;
11514;SDS011;5814;41.936;25.556;2023-04-03T14:55:08;24.23;;;19.10;;
11514;SDS011;5814;41.936;25.556;2023-04-03T14:57:35;20.43;;;17.70;;
11514;SDS011;5814;41.936;25.556;2023-04-03T15:00:03;20.87;;;17.93;;
11514;SDS011;5814;41.936;25.556;2023-04-03T15:02:32;22.60;;;18.47;;
11514;SDS011;5814;41.936;25.556;2023-04-03T15:04:59;20.97;;;18.57;;
11514;SDS011;5814;41.936;25.556;2023-04-03T15:07:26;21.83;;;19.60;;
11514;SDS011;5814;41.936;25.556;2023-04-03T15:09:53;20.10;;;18.00;;
11514;SDS011;5814;41.936;25.556;2023-04-03T15:12:20;26.87;;;21.03;;
11514;SDS011;5814;41.936;25.556;2023-04-03T15:14:47;22.87;;;20.30;;
11514;SDS011;5814;41.936;25.556;2023-04-03T15:17:15;24.00;;;20.10;;
11514;SDS011;5814;41.936;25.556;2023-04-03T15:19:42;23.17;;;20.70;;
11514;SDS011;5814;41.936;25.556;2023-04-03T15:22:13;26.50;;;19.73;;
11514;SDS011;5814;41.936;25.556;2023-04-03T15:24:36;26.57;;;18.63;;
11514;SDS011;5814;41.936;25.556;2023-04-03T15:27:03;25.67;;;18.47;;
11514;SDS011;5814;41.936;25.556;2023-04-03T15:29:30;23.17;;;18.63;;
11514;SDS011;5814;41.936;25.556;2023-04-03T15:31:57;20.67;;;18.37;;
11514;SDS011;5814;41.936;25.556;2023-04-03T15:34:25;21.40;;;18.80;;
11514;SDS011;5814;41.936;25.556;2023-04-03T15:36:52;20.63;;;18.50;;
11514;SDS011;5814;41.936;25.556;2023-04-03T15:39:19;21.17;;;19.03;;
11514;SDS011;5814;41.936;25.556;2023-04-03T15:41:46;21.70;;;19.40;;
11514;SDS011;5814;41.936;25.556;2023-04-03T15:44:13;21.97;;;19.67;;
11514;SDS011;5814;41.936;25.556;2023-04-03T15:46:41;23.07;;;20.27;;
11514;SDS011;5814;41.936;25.556;2023-04-03T15:49:08;23.00;;;20.27;;
11514;SDS011;5814;41.936;25.556;2023-04-03T15:51:35;26.33;;;22.07;;
11514;SDS011;5814;41.936;25.556;2023-04-03T15:54:02;25.27;;;22.50;;
11514;SDS011;5814;41.936;25.556;2023-04-03T15:56:30;25.77;;;23.00;;
11514;SDS011;5814;41.936;25.556;2023-04-03T15:58:57;26.43;;;22.10;;
11514;SDS011;5814;41.936;25.556;2023-04-03T16:01:24;25.70;;;22.70;;
11514;SDS011;5814;41.936;25.556;2023-04-03T16:03:51;25.67;;;21.60;;
11514;SDS011;5814;41.936;25.556;2023-04-03T16:06:19;24.30;;;20.20;;
11514;SDS011;5814;41.936;25.556;2023-04-03T16:08:46;29.33;;;22.13;;
11514;SDS011;5814;41.936;25.556;2023-04-03T16:11:13;29.10;;;23.57;;
11514;SDS011;5814;41.936;25.556;2023-04-03T16:13:40;33.13;;;25.87;;
11514;SDS011;5814;41.936;25.556;2023-04-03T16:16:07;31.87;;;25.73;;
11514;SDS011;5814;41.936;25.556;2023-04-03T16:18:35;35.10;;;26.93;;
11514;SDS011;5814;41.936;25.556;2023-04-03T16:21:02;34.67;;;28.03;;
11514;SDS011;5814;41.936;25.556;2023-04-03T16:23:29;32.70;;;27.17;;
11514;SDS011;5814;41.936;25.556;2023-04-03T16:25:56;34.07;;;25.33;;
11514;SDS011;5814;41.936;25.556;2023-04-03T16:28:24;29.87;;;25.30;;
11514;SDS011;5814;41.936;25.556;2023-04-03T16:30:51;31.77;;;26.40;;
11514;SDS011;5814;41.936;25.556;2023-04-03T16:33:18;34.03;;;26.67;;
11514;SDS011;5814;41.936;25.556;2023-04-03T16:35:45;30.00;;;25.80;;
11514;SDS011;5814;41.936;25.556;2023-04-03T16:38:12;29.77;;;26.20;;
11514;SDS011;5814;41.936;25.556;2023-04-03T16:40:40;32.00;;;24.23;;
11514;SDS011;5814;41.936;25.556;2023-04-03T16:43:07;20.10;;;18.07;;
11514;SDS011;5814;41.936;25.556;2023-04-03T16:45:34;21.20;;;18.90;;
11514;SDS011;5814;41.936;25.556;2023-04-03T16:48:01;22.57;;;17.97;;
11514;SDS011;5814;41.936;25.556;2023-04-03T16:50:28;28.83;;;25.87;;
11514;SDS011;5814;41.936;25.556;2023-04-03T16:52:56;19.13;;;17.33;;
11514;SDS011;5814;41.936;25.556;2023-04-03T16:55:23;20.10;;;18.07;;
11514;SDS011;5814;41.936;25.556;2023-04-03T16:57:50;21.33;;;19.03;;
11514;SDS011;5814;41.936;25.556;2023-04-03T17:00:18;21.67;;;18.87;;
11514;SDS011;5814;41.936;25.556;2023-04-03T17:02:45;18.27;;;16.37;;
11514;SDS011;5814;41.936;25.556;2023-04-03T17:05:12;15.17;;;13.83;;
11514;SDS011;5814;41.936;25.556;2023-04-03T17:07:40;15.50;;;14.00;;
11514;SDS011;5814;41.936;25.556;2023-04-03T17:10:07;15.13;;;13.83;;
11514;SDS011;5814;41.936;25.556;2023-04-03T17:12:35;14.80;;;13.63;;
11514;SDS011;5814;41.936;25.556;2023-04-03T17:15:02;13.37;;;12.07;;
11514;SDS011;5814;41.936;25.556;2023-04-03T17:17:30;13.93;;;12.80;;
11514;SDS011;5814;41.936;25.556;2023-04-03T17:19:57;13.03;;;12.03;;
11514;SDS011;5814;41.936;25.556;2023-04-03T17:22:24;12.73;;;11.67;;
11514;SDS011;5814;41.936;25.556;2023-04-03T17:24:51;11.13;;;10.33;;
11514;SDS011;5814;41.936;25.556;2023-04-03T17:27:18;9.90;;;9.20;;
11514;SDS011;5814;41.936;25.556;2023-04-03T17:29:46;8.90;;;8.30;;
11514;SDS011;5814;41.936;25.556;2023-04-03T17:32:13;8.97;;;8.27;;
11514;SDS011;5814;41.936;25.556;2023-04-03T17:34:40;8.53;;;8.00;;